DW2380 Paimio FI current weather conditions

sailwx.info

Wind from 360 at 6 knots gusting 12

Air temperature 0.6° C
Dewpoint -0.9° C

Last reported at 2015-Jan-26 11:42 UTC.
Time now 2015-Jan-26 12:31 UTC

Location: N 60°28' E 022°40'.
View on Google Maps.

See reports from other nearby stations

  
Tides and Currents Weather Stations Pressure Air Temp Water Temp Dewpoint Dewpoint Depression Visibility Wind Speed Wind Dir Waves Ship Positions
date/time (UTC)wind fromknots sea level pressurealtimeterstation pressurevisibilityair tempwater tempwave heightnotes
2015-Jan-26 11:42 360 6 gusting 12 0.6
2015-Jan-26 11:27 360 9 gusting 14 0.6
2015-Jan-26 11:12 360 6 gusting 10 0.6
2015-Jan-26 10:57 360 9 gusting 12 0.6
2015-Jan-26 10:41 360 4 gusting 12 0.6
2015-Jan-26 10:26 360 4 gusting 9 0.6
2015-Jan-26 10:11 360 6 gusting 11 0.6
2015-Jan-26 09:56 360 6 gusting 11 0.6
2015-Jan-26 09:41 360 6 gusting 9 0.6
2015-Jan-26 09:26 360 4 gusting 8 -0.0
2015-Jan-26 09:11 360 5 gusting 11 -0.0
2015-Jan-26 08:56 360 3 gusting 6 -0.0
2015-Jan-26 08:41 360 3 gusting 8 -0.0
2015-Jan-26 08:26 360 5 gusting 10 -0.0
2015-Jan-26 08:09 360 2 gusting 6 -0.6
2015-Jan-26 07:54 360 4 gusting 6 -0.6
2015-Jan-26 07:39 360 2 gusting 6 -0.6
2015-Jan-26 07:24 360 3 gusting 8 -0.6
2015-Jan-26 07:09 360 3 gusting 6 -0.6
2015-Jan-26 05:38 360 2 gusting 4 -1.1
2015-Jan-26 05:23 360 3 gusting 6 -1.1
2015-Jan-26 05:08 360 3 gusting 6 -1.1
2015-Jan-26 04:52 360 1 gusting 5 -1.1
2015-Jan-26 04:37 360 2 gusting 5 -1.1
2015-Jan-26 04:22 360 1 gusting 4 -1.1
2015-Jan-26 04:07 360 0 gusting 3 -1.1
2015-Jan-26 03:52 360 1 gusting 4 -1.1
2015-Jan-26 03:37 360 1 gusting 6 -1.1
2015-Jan-26 03:23 360 0 gusting 5 -1.1
2015-Jan-26 03:07 360 2 gusting 6 -1.1
2015-Jan-26 02:52 360 -1.1
2015-Jan-26 02:36 360 0 gusting 2 -1.1
2015-Jan-26 02:21 360 0 gusting 2 -1.1
2015-Jan-26 02:06 360 -1.1
2015-Jan-26 01:51 360 1 gusting 2 -1.1
2015-Jan-26 01:36 360 -1.1
2015-Jan-26 01:21 360 -1.1
2015-Jan-26 01:06 360 -1.1
2015-Jan-26 00:51 360 -1.1
2015-Jan-26 00:36 360 -1.1
2015-Jan-26 00:21 360 0 gusting 3 -1.1
2015-Jan-26 00:06 360 1 gusting 5 -1.1
2015-Jan-25 23:51 360 3 gusting 6 -1.1
2015-Jan-25 23:36 360 0 gusting 2 -0.6
2015-Jan-25 23:21 360 -0.6
2015-Jan-25 23:06 360 -0.6
2015-Jan-25 22:51 360 -0.6
2015-Jan-25 22:36 360 0 gusting 1 -0.6
2015-Jan-25 22:21 360 -0.6
2015-Jan-25 22:06 360 0 gusting 2 -0.6
2015-Jan-25 21:51 360 -0.6
2015-Jan-25 21:36 360 0 gusting 1 -0.6
2015-Jan-25 21:21 360 -0.6
2015-Jan-25 21:06 360 -0.6
2015-Jan-25 20:51 360 -0.6
2015-Jan-25 20:36 360 -0.6
2015-Jan-25 20:21 360 -0.6
2015-Jan-25 20:06 360 -0.6
2015-Jan-25 19:51 360 0 gusting 2 -0.6
2015-Jan-25 19:36 360 -0.6
2015-Jan-25 19:21 360 -0.0
2015-Jan-25 19:06 360 -0.0
2015-Jan-25 18:51 360 -0.0
2015-Jan-25 18:34 360 -0.0
2015-Jan-25 18:19 360 -0.0
2015-Jan-25 18:04 360 -0.0
2015-Jan-25 17:49 360 -0.0
2015-Jan-25 17:34 360 -0.0
2015-Jan-25 17:19 360 -0.0
2015-Jan-25 17:03 360 -0.0
2015-Jan-25 16:48 360 -0.0
2015-Jan-25 16:33 360 -0.0
2015-Jan-25 16:18 360 1 gusting 4 -0.0
2015-Jan-25 16:03 360 0 gusting 2 -0.0
2015-Jan-25 15:48 360 0 gusting 2 -0.0
2015-Jan-25 15:33 360 1 gusting 4 -0.0
2015-Jan-25 15:18 360 0 gusting 2 -0.0
2015-Jan-25 15:02 360 1 gusting 3 -0.0
2015-Jan-25 14:47 360 2 gusting 5 -0.0
2015-Jan-25 14:32 360 1 gusting 5 -0.0
2015-Jan-25 14:17 360 1 gusting 4 -0.0
2015-Jan-25 14:02 360 1 gusting 5 -0.0
2015-Jan-25 13:47 360 3 gusting 7 -0.0
2015-Jan-25 13:32 360 4 gusting 9 -0.0
2015-Jan-25 13:16 360 3 gusting 7 -0.0
2015-Jan-25 13:01 360 4 gusting 8 -0.0
2015-Jan-25 12:46 360 4 gusting 10 -0.0
2015-Jan-25 12:31 360 6 gusting 11 -0.0
2015-Jan-25 12:16 360 3 gusting 7 -0.0
2015-Jan-25 12:01 360 5 gusting 12 -0.0
2015-Jan-25 11:46 360 4 gusting 9 -0.0
2015-Jan-25 11:31 360 5 gusting 10 -0.0
2015-Jan-25 11:16 360 5 gusting 10 -0.0
2015-Jan-25 11:01 360 5 gusting 11 -0.0
2015-Jan-25 10:46 360 5 gusting 11 -0.0
2015-Jan-25 10:31 360 6 gusting 11 -0.0
2015-Jan-25 10:14 360 5 gusting 13 -0.0
2015-Jan-25 09:59 360 5 gusting 10 -0.0
2015-Jan-25 09:44 360 4 gusting 11 -0.0
2015-Jan-25 09:29 360 9 gusting 13 -0.6
2015-Jan-25 09:14 360 6 gusting 13 -0.6
2015-Jan-25 08:59 360 6 gusting 11 -0.6
2015-Jan-25 08:44 360 3 gusting 9 -0.6
2015-Jan-25 08:28 360 6 gusting 11 -0.6
2015-Jan-25 08:13 360 3 gusting 10 -0.6
2015-Jan-25 07:58 360 4 gusting 12 -0.6
2015-Jan-25 07:43 360 5 gusting 9 -0.6
2015-Jan-25 07:28 360 4 gusting 8 -0.6
2015-Jan-25 07:12 360 4 gusting 9 -0.6
2015-Jan-25 06:57 360 3 gusting 12 -0.6
2015-Jan-25 06:42 360 4 gusting 8 -0.6
2015-Jan-25 06:27 360 4 gusting 9 -0.6
2015-Jan-25 06:12 360 4 gusting 10 -0.6
2015-Jan-25 05:57 360 5 gusting 10 -0.6
2015-Jan-25 05:42 360 5 gusting 10 -0.6
2015-Jan-25 05:27 360 6 gusting 11 -0.6
2015-Jan-25 05:12 360 6 gusting 9 -0.6
2015-Jan-25 04:57 360 3 gusting 7 -0.6
2015-Jan-25 04:42 360 6 gusting 13 -0.6
2015-Jan-25 04:27 360 6 gusting 11 -0.6
2015-Jan-25 04:12 360 6 gusting 11 -0.6
2015-Jan-25 03:57 360 4 gusting 9 -0.6
2015-Jan-25 03:42 360 6 gusting 10 -0.6
2015-Jan-25 03:27 360 5 gusting 9 -0.6
2015-Jan-25 03:12 360 4 gusting 9 -0.6
2015-Jan-25 02:57 360 4 gusting 9 -0.6
2015-Jan-25 02:41 360 4 gusting 10 -0.6
2015-Jan-25 02:26 360 5 gusting 10 -0.0
2015-Jan-25 02:11 360 5 gusting 11 -0.0
2015-Jan-25 01:56 360 8 gusting 14 -0.0
2015-Jan-25 01:41 360 5 gusting 11 -0.0
2015-Jan-25 01:26 360 6 gusting 12 -0.0
2015-Jan-25 01:11 360 6 gusting 14 -0.0
2015-Jan-25 00:56 360 6 gusting 12 -0.0
2015-Jan-25 00:41 360 5 gusting 9 -0.0
2015-Jan-25 00:26 360 6 gusting 11 -0.0
2015-Jan-25 00:11 360 4 gusting 13 -0.0
2015-Jan-24 23:56 360 5 gusting 13 -0.0
2015-Jan-24 23:41 360 4 gusting 10 -0.0
2015-Jan-24 23:26 360 4 gusting 9 -0.0
2015-Jan-24 23:11 360 5 gusting 11 -0.0
2015-Jan-24 22:56 360 9 gusting 13 -0.0
2015-Jan-24 22:41 360 4 gusting 10 -0.0
2015-Jan-24 22:26 360 6 gusting 13 -0.0
2015-Jan-24 22:11 360 7 gusting 14 -0.0
2015-Jan-24 21:56 360 7 gusting 18 -0.0
2015-Jan-24 21:41 360 7 gusting 16 -0.0
2015-Jan-24 21:26 360 7 gusting 14 -0.0
2015-Jan-24 21:11 360 6 gusting 16 -0.0
2015-Jan-24 20:56 360 8 gusting 14 -0.0
2015-Jan-24 20:41 360 11 gusting 17 -0.0
2015-Jan-24 20:26 360 5 gusting 12 -0.0
2015-Jan-24 20:11 360 6 gusting 13 -0.0
2015-Jan-24 19:56 360 6 gusting 11 -0.0
2015-Jan-24 19:41 360 6 gusting 12 -0.0
2015-Jan-24 19:26 360 6 gusting 13 -0.0
2015-Jan-24 19:09 360 6 gusting 14 -0.0
2015-Jan-24 18:54 360 6 gusting 11 -0.0
2015-Jan-24 18:39 360 9 gusting 16 -0.0
2015-Jan-24 18:24 360 6 gusting 12 -0.0
2015-Jan-24 18:09 360 6 gusting 13 -0.0
2015-Jan-24 17:54 360 5 gusting 12 -0.0
2015-Jan-24 17:38 360 5 gusting 11 -0.0
2015-Jan-24 17:23 360 4 gusting 10 -0.0
2015-Jan-24 17:08 360 5 gusting 14 -0.0
2015-Jan-24 16:53 360 5 gusting 8 -0.0
2015-Jan-24 16:38 360 4 gusting 9 -0.0
2015-Jan-24 16:23 360 6 gusting 10 -0.0
2015-Jan-24 16:08 360 4 gusting 8 -0.0
2015-Jan-24 15:53 360 4 gusting 7 -0.0
2015-Jan-24 15:37 360 5 gusting 9 -0.0
2015-Jan-24 15:22 360 6 gusting 8 -0.6
2015-Jan-24 15:07 360 5 gusting 9 -0.6
2015-Jan-24 14:52 360 4 gusting 9 -0.6
2015-Jan-24 14:37 360 3 gusting 8 -0.6
2015-Jan-24 14:22 360 3 gusting 9 -0.6
2015-Jan-24 14:06 360 4 gusting 12 -0.6
2015-Jan-24 13:51 360 5 gusting 10 -0.6
2015-Jan-24 13:36 360 7 gusting 13 -0.0
2015-Jan-24 13:21 360 7 gusting 13 -0.0
2015-Jan-24 13:06 360 6 gusting 12 -0.0
2015-Jan-24 12:51 360 5 gusting 12 -0.0
2015-Jan-24 12:36 360 6 gusting 11 -0.6
2015-Jan-24 12:21 360 5 gusting 8 -0.6
2015-Jan-24 12:06 360 6 gusting 10 -0.6